sensor_id;sensor_type;location;lat;lon;timestamp;temperature;humidity
22114;DHT22;11223;49.968;9.062;2023-03-12T00:02:10;-2.00;99.90
22114;DHT22;11223;49.968;9.062;2023-03-12T00:04:36;-2.10;99.90
22114;DHT22;11223;49.968;9.062;2023-03-12T00:07:02;-2.10;99.90
22114;DHT22;11223;49.968;9.062;2023-03-12T00:09:33;-2.10;99.90
22114;DHT22;11223;49.968;9.062;2023-03-12T00:11:58;-2.10;99.90
22114;DHT22;11223;49.968;9.062;2023-03-12T00:14:24;-2.10;99.90
22114;DHT22;11223;49.968;9.062;2023-03-12T00:16:50;-2.10;99.90
22114;DHT22;11223;49.968;9.062;2023-03-12T00:19:15;-2.10;99.90
22114;DHT22;11223;49.968;9.062;2023-03-12T00:21:41;-2.20;99.90
22114;DHT22;11223;49.968;9.062;2023-03-12T00:24:07;-2.20;99.90
22114;DHT22;11223;49.968;9.062;2023-03-12T00:26:33;-2.20;99.90
22114;DHT22;11223;49.968;9.062;2023-03-12T00:28:59;-2.20;99.90
22114;DHT22;11223;49.968;9.062;2023-03-12T00:31:30;-2.20;99.90
22114;DHT22;11223;49.968;9.062;2023-03-12T00:33:58;-2.20;99.90
22114;DHT22;11223;49.968;9.062;2023-03-12T00:36:26;-2.20;99.90
22114;DHT22;11223;49.968;9.062;2023-03-12T00:38:53;-2.20;99.90
22114;DHT22;11223;49.968;9.062;2023-03-12T00:41:20;-2.20;99.90
22114;DHT22;11223;49.968;9.062;2023-03-12T00:43:46;-2.20;99.90
22114;DHT22;11223;49.968;9.062;2023-03-12T00:46:12;-2.20;99.90
22114;DHT22;11223;49.968;9.062;2023-03-12T00:48:38;-2.20;99.90
22114;DHT22;11223;49.968;9.062;2023-03-12T00:51:04;-2.10;99.90
22114;DHT22;11223;49.968;9.062;2023-03-12T00:53:30;-2.20;99.90
22114;DHT22;11223;49.968;9.062;2023-03-12T00:55:56;-2.20;99.90
22114;DHT22;11223;49.968;9.062;2023-03-12T00:58:21;-2.20;99.90
22114;DHT22;11223;49.968;9.062;2023-03-12T01:00:47;-2.10;99.90
22114;DHT22;11223;49.968;9.062;2023-03-12T01:03:13;-2.10;99.90
22114;DHT22;11223;49.968;9.062;2023-03-12T01:05:38;-2.00;99.90
22114;DHT22;11223;49.968;9.062;2023-03-12T01:08:06;-2.00;99.90
22114;DHT22;11223;49.968;9.062;2023-03-12T01:10:32;-1.90;99.90
22114;DHT22;11223;49.968;9.062;2023-03-12T01:12:58;-1.90;99.90
22114;DHT22;11223;49.968;9.062;2023-03-12T01:15:23;-1.90;99.90
22114;DHT22;11223;49.968;9.062;2023-03-12T01:17:49;-1.80;99.90
22114;DHT22;11223;49.968;9.062;2023-03-12T01:20:15;-1.80;99.90
22114;DHT22;11223;49.968;9.062;2023-03-12T01:22:41;-1.80;99.90
22114;DHT22;11223;49.968;9.062;2023-03-12T01:25:08;-1.70;99.90
22114;DHT22;11223;49.968;9.062;2023-03-12T01:27:34;-1.70;99.90
22114;DHT22;11223;49.968;9.062;2023-03-12T01:30:00;-1.60;99.90
22114;DHT22;11223;49.968;9.062;2023-03-12T01:32:25;-1.60;99.90
22114;DHT22;11223;49.968;9.062;2023-03-12T01:34:51;-1.50;99.90
22114;DHT22;11223;49.968;9.062;2023-03-12T01:37:16;-1.50;99.90
22114;DHT22;11223;49.968;9.062;2023-03-12T01:39:42;-1.50;99.90
22114;DHT22;11223;49.968;9.062;2023-03-12T01:42:07;-1.50;99.90
22114;DHT22;11223;49.968;9.062;2023-03-12T01:45:01;-1.50;99.90
22114;DHT22;11223;49.968;9.062;2023-03-12T01:47:28;-1.40;99.90
22114;DHT22;11223;49.968;9.062;2023-03-12T01:49:59;-1.40;99.90
22114;DHT22;11223;49.968;9.062;2023-03-12T01:52:33;-1.40;99.90
22114;DHT22;11223;49.968;9.062;2023-03-12T01:55:12;-1.30;99.90
22114;DHT22;11223;49.968;9.062;2023-03-12T01:57:49;-1.30;99.90
22114;DHT22;11223;49.968;9.062;2023-03-12T02:00:24;-1.30;99.90
22114;DHT22;11223;49.968;9.062;2023-03-12T02:02:51;-1.30;99.90
22114;DHT22;11223;49.968;9.062;2023-03-12T02:05:38;-1.30;99.90
22114;DHT22;11223;49.968;9.062;2023-03-12T02:08:08;-1.20;99.90
22114;DHT22;11223;49.968;9.062;2023-03-12T02:10:34;-1.30;99.90
22114;DHT22;11223;49.968;9.062;2023-03-12T02:13:00;-1.20;99.90
22114;DHT22;11223;49.968;9.062;2023-03-12T02:15:26;-1.20;99.90
22114;DHT22;11223;49.968;9.062;2023-03-12T02:17:52;-1.20;99.90
22114;DHT22;11223;49.968;9.062;2023-03-12T02:20:32;-1.20;99.90
22114;DHT22;11223;49.968;9.062;2023-03-12T02:23:15;-1.20;99.90
22114;DHT22;11223;49.968;9.062;2023-03-12T02:25:45;-1.20;99.90
22114;DHT22;11223;49.968;9.062;2023-03-12T02:28:14;-1.20;99.90
22114;DHT22;11223;49.968;9.062;2023-03-12T02:30:42;-1.20;99.90
22114;DHT22;11223;49.968;9.062;2023-03-12T02:33:09;-1.20;99.90
22114;DHT22;11223;49.968;9.062;2023-03-12T02:35:35;-1.20;99.90
22114;DHT22;11223;49.968;9.062;2023-03-12T02:38:02;-1.20;99.90
22114;DHT22;11223;49.968;9.062;2023-03-12T02:40:35;-1.20;99.90
22114;DHT22;11223;49.968;9.062;2023-03-12T02:43:05;-1.20;99.90
22114;DHT22;11223;49.968;9.062;2023-03-12T02:45:33;-1.10;99.90
22114;DHT22;11223;49.968;9.062;2023-03-12T02:48:00;-1.10;99.90
22114;DHT22;11223;49.968;9.062;2023-03-12T02:50:25;-1.10;99.90
22114;DHT22;11223;49.968;9.062;2023-03-12T02:52:51;-1.10;99.90
22114;DHT22;11223;49.968;9.062;2023-03-12T02:55:16;-1.10;99.90
22114;DHT22;11223;49.968;9.062;2023-03-12T02:57:42;-1.10;99.90
22114;DHT22;11223;49.968;9.062;2023-03-12T03:00:09;-1.10;99.90
22114;DHT22;11223;49.968;9.062;2023-03-12T03:02:39;-1.00;99.90
22114;DHT22;11223;49.968;9.062;2023-03-12T03:05:05;-1.00;99.90
22114;DHT22;11223;49.968;9.062;2023-03-12T03:07:31;-1.00;99.90
22114;DHT22;11223;49.968;9.062;2023-03-12T03:09:57;-1.00;99.90
22114;DHT22;11223;49.968;9.062;2023-03-12T03:12:31;-1.00;99.90
22114;DHT22;11223;49.968;9.062;2023-03-12T03:14:57;-1.00;99.90
22114;DHT22;11223;49.968;9.062;2023-03-12T03:17:23;-1.00;99.90
22114;DHT22;11223;49.968;9.062;2023-03-12T03:19:50;-1.00;99.90
22114;DHT22;11223;49.968;9.062;2023-03-12T03:22:16;-1.00;99.90
22114;DHT22;11223;49.968;9.062;2023-03-12T03:24:42;-1.00;99.90
22114;DHT22;11223;49.968;9.062;2023-03-12T03:27:08;-1.00;99.90
22114;DHT22;11223;49.968;9.062;2023-03-12T03:29:34;-1.00;99.90
22114;DHT22;11223;49.968;9.062;2023-03-12T03:31:59;-1.00;99.90
22114;DHT22;11223;49.968;9.062;2023-03-12T03:34:25;-1.00;99.90
22114;DHT22;11223;49.968;9.062;2023-03-12T03:36:50;-1.00;99.90
22114;DHT22;11223;49.968;9.062;2023-03-12T03:39:16;-1.00;99.90
22114;DHT22;11223;49.968;9.062;2023-03-12T03:41:42;-1.00;99.90
22114;DHT22;11223;49.968;9.062;2023-03-12T03:44:08;-0.90;99.90
22114;DHT22;11223;49.968;9.062;2023-03-12T03:46:34;-0.90;99.90
22114;DHT22;11223;49.968;9.062;2023-03-12T03:49:00;-0.90;99.90
22114;DHT22;11223;49.968;9.062;2023-03-12T03:51:26;-0.90;99.90
22114;DHT22;11223;49.968;9.062;2023-03-12T03:53:52;-0.80;99.90
22114;DHT22;11223;49.968;9.062;2023-03-12T03:56:18;-0.70;99.90
22114;DHT22;11223;49.968;9.062;2023-03-12T03:58:43;-0.70;99.90
22114;DHT22;11223;49.968;9.062;2023-03-12T04:01:14;-0.60;99.90
22114;DHT22;11223;49.968;9.062;2023-03-12T04:03:40;-0.60;99.90
22114;DHT22;11223;49.968;9.062;2023-03-12T04:06:06;-0.60;99.90
22114;DHT22;11223;49.968;9.062;2023-03-12T04:08:33;-0.70;99.90
22114;DHT22;11223;49.968;9.062;2023-03-12T04:11:09;-0.60;99.90
22114;DHT22;11223;49.968;9.062;2023-03-12T04:13:36;-0.70;99.90
22114;DHT22;11223;49.968;9.062;2023-03-12T04:16:01;-0.60;99.90
22114;DHT22;11223;49.968;9.062;2023-03-12T04:18:27;-0.70;99.90
22114;DHT22;11223;49.968;9.062;2023-03-12T04:20:53;-0.60;99.90
22114;DHT22;11223;49.968;9.062;2023-03-12T04:23:18;-0.60;99.90
22114;DHT22;11223;49.968;9.062;2023-03-12T04:25:44;-0.60;99.90
22114;DHT22;11223;49.968;9.062;2023-03-12T04:28:09;-0.60;99.90
22114;DHT22;11223;49.968;9.062;2023-03-12T04:30:35;-0.60;99.90
22114;DHT22;11223;49.968;9.062;2023-03-12T04:33:03;-0.60;99.90
22114;DHT22;11223;49.968;9.062;2023-03-12T04:35:29;-0.60;99.90
22114;DHT22;11223;49.968;9.062;2023-03-12T04:37:54;-0.50;99.90
22114;DHT22;11223;49.968;9.062;2023-03-12T04:40:20;-0.50;99.90
22114;DHT22;11223;49.968;9.062;2023-03-12T04:42:46;-0.50;99.90
22114;DHT22;11223;49.968;9.062;2023-03-12T04:45:12;-0.50;99.90
22114;DHT22;11223;49.968;9.062;2023-03-12T04:47:38;-0.40;99.90
22114;DHT22;11223;49.968;9.062;2023-03-12T04:50:04;-0.50;99.90
22114;DHT22;11223;49.968;9.062;2023-03-12T04:52:29;-0.50;99.90
22114;DHT22;11223;49.968;9.062;2023-03-12T04:54:55;-0.50;99.90
22114;DHT22;11223;49.968;9.062;2023-03-12T04:57:21;-0.50;99.90
22114;DHT22;11223;49.968;9.062;2023-03-12T04:59:47;-0.40;99.90
22114;DHT22;11223;49.968;9.062;2023-03-12T05:02:12;-0.40;99.90
22114;DHT22;11223;49.968;9.062;2023-03-12T05:04:38;-0.40;99.90
22114;DHT22;11223;49.968;9.062;2023-03-12T05:07:04;-0.40;99.90
22114;DHT22;11223;49.968;9.062;2023-03-12T05:09:29;-0.40;99.90
22114;DHT22;11223;49.968;9.062;2023-03-12T05:11:55;-0.40;99.90
22114;DHT22;11223;49.968;9.062;2023-03-12T05:14:21;-0.30;99.90
22114;DHT22;11223;49.968;9.062;2023-03-12T05:16:46;-0.30;99.90
22114;DHT22;11223;49.968;9.062;2023-03-12T05:19:12;-0.30;99.90
22114;DHT22;11223;49.968;9.062;2023-03-12T05:21:39;-0.30;99.90
22114;DHT22;11223;49.968;9.062;2023-03-12T05:24:07;-0.30;99.90
22114;DHT22;11223;49.968;9.062;2023-03-12T05:26:33;-0.30;99.90
22114;DHT22;11223;49.968;9.062;2023-03-12T05:29:00;-0.30;99.90
22114;DHT22;11223;49.968;9.062;2023-03-12T05:31:27;-0.30;99.90
22114;DHT22;11223;49.968;9.062;2023-03-12T05:33:53;-0.20;99.90
22114;DHT22;11223;49.968;9.062;2023-03-12T05:36:19;-0.20;99.90
22114;DHT22;11223;49.968;9.062;2023-03-12T05:38:45;-0.20;99.90
22114;DHT22;11223;49.968;9.062;2023-03-12T05:41:25;-0.10;99.90
22114;DHT22;11223;49.968;9.062;2023-03-12T05:43:52;-0.10;99.90
22114;DHT22;11223;49.968;9.062;2023-03-12T05:46:18;-0.10;99.90
22114;DHT22;11223;49.968;9.062;2023-03-12T05:48:44;-0.10;99.90
22114;DHT22;11223;49.968;9.062;2023-03-12T05:51:09;0.00;99.90
22114;DHT22;11223;49.968;9.062;2023-03-12T05:53:35;0.00;99.90
22114;DHT22;11223;49.968;9.062;2023-03-12T05:56:09;0.10;99.90
22114;DHT22;11223;49.968;9.062;2023-03-12T05:58:37;0.10;99.90
22114;DHT22;11223;49.968;9.062;2023-03-12T06:01:09;0.10;99.90
22114;DHT22;11223;49.968;9.062;2023-03-12T06:03:35;0.10;99.90
22114;DHT22;11223;49.968;9.062;2023-03-12T06:06:00;0.10;99.90
22114;DHT22;11223;49.968;9.062;2023-03-12T06:08:26;0.10;99.90
22114;DHT22;11223;49.968;9.062;2023-03-12T06:10:52;0.10;99.90
22114;DHT22;11223;49.968;9.062;2023-03-12T06:13:20;0.10;99.90
22114;DHT22;11223;49.968;9.062;2023-03-12T06:15:47;0.20;99.90
22114;DHT22;11223;49.968;9.062;2023-03-12T06:18:12;0.20;99.90
22114;DHT22;11223;49.968;9.062;2023-03-12T06:20:38;0.20;99.90
22114;DHT22;11223;49.968;9.062;2023-03-12T06:23:03;0.20;99.90
22114;DHT22;11223;49.968;9.062;2023-03-12T06:25:29;0.30;99.90
22114;DHT22;11223;49.968;9.062;2023-03-12T06:27:55;0.30;99.90
22114;DHT22;11223;49.968;9.062;2023-03-12T06:30:20;0.40;99.90
22114;DHT22;11223;49.968;9.062;2023-03-12T06:32:46;0.40;99.90
22114;DHT22;11223;49.968;9.062;2023-03-12T06:35:11;0.50;99.90
22114;DHT22;11223;49.968;9.062;2023-03-12T06:37:37;0.50;99.90
22114;DHT22;11223;49.968;9.062;2023-03-12T06:40:03;0.60;99.90
22114;DHT22;11223;49.968;9.062;2023-03-12T06:42:29;0.60;99.90
22114;DHT22;11223;49.968;9.062;2023-03-12T06:44:55;0.60;99.90
22114;DHT22;11223;49.968;9.062;2023-03-12T06:47:21;0.70;99.90
22114;DHT22;11223;49.968;9.062;2023-03-12T06:49:46;0.70;99.90
22114;DHT22;11223;49.968;9.062;2023-03-12T06:52:12;0.70;99.90
22114;DHT22;11223;49.968;9.062;2023-03-12T06:54:37;0.70;99.90
22114;DHT22;11223;49.968;9.062;2023-03-12T06:57:03;0.80;99.90
22114;DHT22;11223;49.968;9.062;2023-03-12T06:59:29;0.80;99.90
22114;DHT22;11223;49.968;9.062;2023-03-12T07:01:54;0.80;99.90
22114;DHT22;11223;49.968;9.062;2023-03-12T07:04:20;0.80;99.90
22114;DHT22;11223;49.968;9.062;2023-03-12T07:06:45;0.90;99.90
22114;DHT22;11223;49.968;9.062;2023-03-12T07:09:16;0.90;99.90
22114;DHT22;11223;49.968;9.062;2023-03-12T07:11:43;1.00;99.90
22114;DHT22;11223;49.968;9.062;2023-03-12T07:14:08;1.00;99.90
22114;DHT22;11223;49.968;9.062;2023-03-12T07:16:34;1.10;99.90
22114;DHT22;11223;49.968;9.062;2023-03-12T07:19:00;1.10;99.90
22114;DHT22;11223;49.968;9.062;2023-03-12T07:21:25;1.10;99.90
22114;DHT22;11223;49.968;9.062;2023-03-12T07:23:51;1.20;99.90
22114;DHT22;11223;49.968;9.062;2023-03-12T07:26:18;1.20;99.90
22114;DHT22;11223;49.968;9.062;2023-03-12T07:28:44;1.20;99.90
22114;DHT22;11223;49.968;9.062;2023-03-12T07:31:10;1.30;99.90
22114;DHT22;11223;49.968;9.062;2023-03-12T07:33:35;1.30;99.90
22114;DHT22;11223;49.968;9.062;2023-03-12T07:36:01;1.40;99.90
22114;DHT22;11223;49.968;9.062;2023-03-12T07:38:27;1.40;99.90
22114;DHT22;11223;49.968;9.062;2023-03-12T07:40:54;1.40;99.90
22114;DHT22;11223;49.968;9.062;2023-03-12T07:43:20;1.40;99.90
22114;DHT22;11223;49.968;9.062;2023-03-12T07:45:46;1.40;99.90
22114;DHT22;11223;49.968;9.062;2023-03-12T07:48:12;1.50;99.90
22114;DHT22;11223;49.968;9.062;2023-03-12T07:50:38;1.60;99.90
22114;DHT22;11223;49.968;9.062;2023-03-12T07:53:04;1.60;99.90
22114;DHT22;11223;49.968;9.062;2023-03-12T07:55:31;1.70;99.90
22114;DHT22;11223;49.968;9.062;2023-03-12T07:57:57;1.80;99.90
22114;DHT22;11223;49.968;9.062;2023-03-12T08:00:24;1.90;99.90
22114;DHT22;11223;49.968;9.062;2023-03-12T08:02:50;1.90;99.90
22114;DHT22;11223;49.968;9.062;2023-03-12T08:05:16;2.00;99.90
22114;DHT22;11223;49.968;9.062;2023-03-12T08:07:41;2.10;99.90
22114;DHT22;11223;49.968;9.062;2023-03-12T08:10:08;2.10;99.90
22114;DHT22;11223;49.968;9.062;2023-03-12T08:12:34;2.20;99.90
22114;DHT22;11223;49.968;9.062;2023-03-12T08:15:04;2.30;99.90
22114;DHT22;11223;49.968;9.062;2023-03-12T08:17:30;2.30;99.90
22114;DHT22;11223;49.968;9.062;2023-03-12T08:19:56;2.40;99.90
22114;DHT22;11223;49.968;9.062;2023-03-12T08:22:21;2.50;99.90
22114;DHT22;11223;49.968;9.062;2023-03-12T08:24:47;2.50;99.90
22114;DHT22;11223;49.968;9.062;2023-03-12T08:27:13;2.50;99.90
22114;DHT22;11223;49.968;9.062;2023-03-12T08:29:39;2.50;99.90
22114;DHT22;11223;49.968;9.062;2023-03-12T08:32:05;2.50;99.90
22114;DHT22;11223;49.968;9.062;2023-03-12T08:34:32;2.50;99.90
22114;DHT22;11223;49.968;9.062;2023-03-12T08:36:58;2.50;99.90
22114;DHT22;11223;49.968;9.062;2023-03-12T08:39:24;2.40;99.90
22114;DHT22;11223;49.968;9.062;2023-03-12T08:41:50;2.50;99.90
22114;DHT22;11223;49.968;9.062;2023-03-12T08:44:20;2.40;99.90
22114;DHT22;11223;49.968;9.062;2023-03-12T08:46:46;2.40;99.90
22114;DHT22;11223;49.968;9.062;2023-03-12T08:49:12;2.40;99.90
22114;DHT22;11223;49.968;9.062;2023-03-12T08:51:37;2.40;99.90
22114;DHT22;11223;49.968;9.062;2023-03-12T08:54:03;2.50;99.90
22114;DHT22;11223;49.968;9.062;2023-03-12T08:56:30;2.50;99.90
22114;DHT22;11223;49.968;9.062;2023-03-12T08:58:59;2.50;99.90
22114;DHT22;11223;49.968;9.062;2023-03-12T09:01:25;2.50;99.90
22114;DHT22;11223;49.968;9.062;2023-03-12T09:03:50;2.50;99.90
22114;DHT22;11223;49.968;9.062;2023-03-12T09:06:18;2.60;99.90
22114;DHT22;11223;49.968;9.062;2023-03-12T09:08:45;2.60;99.90
22114;DHT22;11223;49.968;9.062;2023-03-12T09:11:12;2.60;99.90
22114;DHT22;11223;49.968;9.062;2023-03-12T09:13:40;2.60;99.90
22114;DHT22;11223;49.968;9.062;2023-03-12T09:16:06;2.60;99.90
22114;DHT22;11223;49.968;9.062;2023-03-12T09:18:33;2.60;99.90
22114;DHT22;11223;49.968;9.062;2023-03-12T09:20:58;2.60;99.90
22114;DHT22;11223;49.968;9.062;2023-03-12T09:23:25;2.60;99.90
22114;DHT22;11223;49.968;9.062;2023-03-12T09:25:51;2.70;99.90
22114;DHT22;11223;49.968;9.062;2023-03-12T09:28:17;2.80;99.90
22114;DHT22;11223;49.968;9.062;2023-03-12T09:30:43;2.90;99.90
22114;DHT22;11223;49.968;9.062;2023-03-12T09:33:08;3.00;99.90
22114;DHT22;11223;49.968;9.062;2023-03-12T09:35:34;3.00;99.90
22114;DHT22;11223;49.968;9.062;2023-03-12T09:38:01;3.10;99.90
22114;DHT22;11223;49.968;9.062;2023-03-12T09:40:30;3.10;99.90
22114;DHT22;11223;49.968;9.062;2023-03-12T09:42:59;3.20;99.90
22114;DHT22;11223;49.968;9.062;2023-03-12T09:45:34;3.20;99.90
22114;DHT22;11223;49.968;9.062;2023-03-12T09:48:02;3.20;99.90
22114;DHT22;11223;49.968;9.062;2023-03-12T09:50:35;3.20;99.90
22114;DHT22;11223;49.968;9.062;2023-03-12T09:55:49;3.20;99.90
22114;DHT22;11223;49.968;9.062;2023-03-12T09:58:30;3.20;99.90
22114;DHT22;11223;49.968;9.062;2023-03-12T10:01:17;3.10;99.90
22114;DHT22;11223;49.968;9.062;2023-03-12T10:04:40;3.10;99.90
22114;DHT22;11223;49.968;9.062;2023-03-12T10:13:07;3.30;99.90
22114;DHT22;11223;49.968;9.062;2023-03-12T10:24:01;3.40;99.90
22114;DHT22;11223;49.968;9.062;2023-03-12T10:26:39;3.40;99.90
22114;DHT22;11223;49.968;9.062;2023-03-12T10:31:52;3.50;99.90
22114;DHT22;11223;49.968;9.062;2023-03-12T10:34:39;3.50;99.90
22114;DHT22;11223;49.968;9.062;2023-03-12T10:37:26;3.50;99.90
22114;DHT22;11223;49.968;9.062;2023-03-12T10:39:54;3.50;99.90
22114;DHT22;11223;49.968;9.062;2023-03-12T10:42:27;3.60;99.90
22114;DHT22;11223;49.968;9.062;2023-03-12T10:45:01;3.70;99.90
22114;DHT22;11223;49.968;9.062;2023-03-12T10:47:49;3.70;99.90
22114;DHT22;11223;49.968;9.062;2023-03-12T10:50:19;3.80;99.90
22114;DHT22;11223;49.968;9.062;2023-03-12T10:52:46;3.80;99.90
22114;DHT22;11223;49.968;9.062;2023-03-12T10:57:47;3.90;99.90
22114;DHT22;11223;49.968;9.062;2023-03-12T11:00:19;3.90;99.90
22114;DHT22;11223;49.968;9.062;2023-03-12T11:02:46;4.00;99.90
22114;DHT22;11223;49.968;9.062;2023-03-12T11:05:27;4.00;99.90
22114;DHT22;11223;49.968;9.062;2023-03-12T11:07:54;4.10;99.90
22114;DHT22;11223;49.968;9.062;2023-03-12T11:10:21;4.10;99.90
22114;DHT22;11223;49.968;9.062;2023-03-12T11:12:57;4.20;99.90
22114;DHT22;11223;49.968;9.062;2023-03-12T11:18:21;4.40;99.90
22114;DHT22;11223;49.968;9.062;2023-03-12T11:21:16;4.60;99.90
22114;DHT22;11223;49.968;9.062;2023-03-12T11:23:43;4.70;99.90
22114;DHT22;11223;49.968;9.062;2023-03-12T11:26:19;4.90;99.90
22114;DHT22;11223;49.968;9.062;2023-03-12T11:28:51;5.00;99.90
22114;DHT22;11223;49.968;9.062;2023-03-12T11:31:23;5.20;99.90
22114;DHT22;11223;49.968;9.062;2023-03-12T11:33:50;5.30;99.90
22114;DHT22;11223;49.968;9.062;2023-03-12T11:47:22;5.50;99.90
22114;DHT22;11223;49.968;9.062;2023-03-12T11:53:21;5.70;99.90
22114;DHT22;11223;49.968;9.062;2023-03-12T12:22:22;6.60;99.90
22114;DHT22;11223;49.968;9.062;2023-03-12T12:28:06;6.80;99.90
22114;DHT22;11223;49.968;9.062;2023-03-12T12:30:39;6.80;99.90
22114;DHT22;11223;49.968;9.062;2023-03-12T12:35:48;6.80;99.90
22114;DHT22;11223;49.968;9.062;2023-03-12T12:38:26;6.70;99.90
22114;DHT22;11223;49.968;9.062;2023-03-12T12:41:08;6.60;99.90
22114;DHT22;11223;49.968;9.062;2023-03-12T12:43:38;6.60;99.90
22114;DHT22;11223;49.968;9.062;2023-03-12T12:46:49;6.60;99.90
22114;DHT22;11223;49.968;9.062;2023-03-12T12:51:47;6.70;99.90
22114;DHT22;11223;49.968;9.062;2023-03-12T12:54:40;6.80;99.90
22114;DHT22;11223;49.968;9.062;2023-03-12T13:02:38;7.00;99.90
22114;DHT22;11223;49.968;9.062;2023-03-12T13:05:27;7.10;99.90
22114;DHT22;11223;49.968;9.062;2023-03-12T13:07:53;7.20;99.90
22114;DHT22;11223;49.968;9.062;2023-03-12T13:13:08;7.50;99.90
22114;DHT22;11223;49.968;9.062;2023-03-12T13:15:38;7.60;99.90
22114;DHT22;11223;49.968;9.062;2023-03-12T13:18:22;7.80;99.90
22114;DHT22;11223;49.968;9.062;2023-03-12T13:26:17;8.30;99.90
22114;DHT22;11223;49.968;9.062;2023-03-12T13:33:49;8.50;99.90
22114;DHT22;11223;49.968;9.062;2023-03-12T13:39:17;8.40;99.90
22114;DHT22;11223;49.968;9.062;2023-03-12T13:41:54;8.30;99.90
22114;DHT22;11223;49.968;9.062;2023-03-12T13:50:00;8.20;99.90
22114;DHT22;11223;49.968;9.062;2023-03-12T13:52:32;8.20;99.90
22114;DHT22;11223;49.968;9.062;2023-03-12T13:55:05;8.20;99.90
22114;DHT22;11223;49.968;9.062;2023-03-12T13:57:35;8.30;99.90
22114;DHT22;11223;49.968;9.062;2023-03-12T14:00:09;8.30;99.90
22114;DHT22;11223;49.968;9.062;2023-03-12T14:02:39;8.30;99.90
22114;DHT22;11223;49.968;9.062;2023-03-12T14:05:08;8.40;99.90
22114;DHT22;11223;49.968;9.062;2023-03-12T14:10:17;8.40;99.90
22114;DHT22;11223;49.968;9.062;2023-03-12T14:13:16;8.40;99.90
22114;DHT22;11223;49.968;9.062;2023-03-12T14:18:28;8.40;99.90
22114;DHT22;11223;49.968;9.062;2023-03-12T14:20:58;8.40;99.90
22114;DHT22;11223;49.968;9.062;2023-03-12T14:23:28;8.50;99.90
22114;DHT22;11223;49.968;9.062;2023-03-12T14:25:58;8.60;99.90
22114;DHT22;11223;49.968;9.062;2023-03-12T14:28:25;8.80;99.90
22114;DHT22;11223;49.968;9.062;2023-03-12T14:31:11;8.90;99.90
22114;DHT22;11223;49.968;9.062;2023-03-12T14:34:07;9.00;99.90
22114;DHT22;11223;49.968;9.062;2023-03-12T14:36:48;9.10;99.90
22114;DHT22;11223;49.968;9.062;2023-03-12T14:39:35;9.20;99.90
22114;DHT22;11223;49.968;9.062;2023-03-12T14:42:05;9.20;99.90
22114;DHT22;11223;49.968;9.062;2023-03-12T14:44:33;9.20;99.90
22114;DHT22;11223;49.968;9.062;2023-03-12T14:47:05;9.30;99.90
22114;DHT22;11223;49.968;9.062;2023-03-12T14:49:42;9.30;99.90
22114;DHT22;11223;49.968;9.062;2023-03-12T14:52:11;9.30;99.90
22114;DHT22;11223;49.968;9.062;2023-03-12T14:54:38;9.20;99.90
22114;DHT22;11223;49.968;9.062;2023-03-12T14:57:05;9.20;99.90
22114;DHT22;11223;49.968;9.062;2023-03-12T14:59:34;9.20;99.90
22114;DHT22;11223;49.968;9.062;2023-03-12T15:02:17;9.10;99.90
22114;DHT22;11223;49.968;9.062;2023-03-12T15:04:43;9.10;99.90
22114;DHT22;11223;49.968;9.062;2023-03-12T15:07:12;9.10;99.90
22114;DHT22;11223;49.968;9.062;2023-03-12T15:09:45;9.10;99.90
22114;DHT22;11223;49.968;9.062;2023-03-12T15:12:25;9.00;99.90
22114;DHT22;11223;49.968;9.062;2023-03-12T15:14:54;9.00;99.90
22114;DHT22;11223;49.968;9.062;2023-03-12T15:17:23;9.10;99.90
22114;DHT22;11223;49.968;9.062;2023-03-12T15:19:52;9.10;99.90
22114;DHT22;11223;49.968;9.062;2023-03-12T15:22:20;9.00;99.90
22114;DHT22;11223;49.968;9.062;2023-03-12T15:24:47;9.00;99.90
22114;DHT22;11223;49.968;9.062;2023-03-12T15:27:31;9.10;99.90
22114;DHT22;11223;49.968;9.062;2023-03-12T15:29:59;9.10;99.90
22114;DHT22;11223;49.968;9.062;2023-03-12T15:32:26;9.10;99.90
22114;DHT22;11223;49.968;9.062;2023-03-12T15:34:53;9.10;99.90
22114;DHT22;11223;49.968;9.062;2023-03-12T15:37:23;9.20;99.90
22114;DHT22;11223;49.968;9.062;2023-03-12T15:39:54;9.20;99.90
22114;DHT22;11223;49.968;9.062;2023-03-12T15:42:23;9.30;99.90
22114;DHT22;11223;49.968;9.062;2023-03-12T15:44:54;9.30;99.90
22114;DHT22;11223;49.968;9.062;2023-03-12T15:47:24;9.40;99.90
22114;DHT22;11223;49.968;9.062;2023-03-12T15:50:00;9.50;99.90
22114;DHT22;11223;49.968;9.062;2023-03-12T15:52:33;9.50;99.90
22114;DHT22;11223;49.968;9.062;2023-03-12T15:57:45;9.60;99.90
22114;DHT22;11223;49.968;9.062;2023-03-12T16:02:38;9.70;99.90
22114;DHT22;11223;49.968;9.062;2023-03-12T16:05:05;9.60;99.90
22114;DHT22;11223;49.968;9.062;2023-03-12T16:07:30;9.60;99.90
22114;DHT22;11223;49.968;9.062;2023-03-12T16:09:56;9.50;99.90
22114;DHT22;11223;49.968;9.062;2023-03-12T16:12:22;9.50;99.90
22114;DHT22;11223;49.968;9.062;2023-03-12T16:14:48;9.50;99.90
22114;DHT22;11223;49.968;9.062;2023-03-12T16:17:14;9.40;99.90
22114;DHT22;11223;49.968;9.062;2023-03-12T16:19:43;9.30;99.90
22114;DHT22;11223;49.968;9.062;2023-03-12T16:22:09;9.30;99.90
22114;DHT22;11223;49.968;9.062;2023-03-12T16:24:34;9.30;99.90
22114;DHT22;11223;49.968;9.062;2023-03-12T16:27:00;9.30;99.90
22114;DHT22;11223;49.968;9.062;2023-03-12T16:29:35;9.20;99.90
22114;DHT22;11223;49.968;9.062;2023-03-12T16:32:01;9.20;99.90
22114;DHT22;11223;49.968;9.062;2023-03-12T16:34:28;9.20;99.90
22114;DHT22;11223;49.968;9.062;2023-03-12T16:36:53;9.10;99.90
22114;DHT22;11223;49.968;9.062;2023-03-12T16:39:19;9.10;99.90
22114;DHT22;11223;49.968;9.062;2023-03-12T16:41:45;9.00;99.90
22114;DHT22;11223;49.968;9.062;2023-03-12T16:44:16;9.00;99.90
22114;DHT22;11223;49.968;9.062;2023-03-12T16:46:44;8.90;99.90
22114;DHT22;11223;49.968;9.062;2023-03-12T16:49:15;8.90;99.90
22114;DHT22;11223;49.968;9.062;2023-03-12T16:51:41;8.90;99.90
22114;DHT22;11223;49.968;9.062;2023-03-12T16:54:07;9.00;99.90
22114;DHT22;11223;49.968;9.062;2023-03-12T16:56:34;8.90;99.90
22114;DHT22;11223;49.968;9.062;2023-03-12T16:59:06;8.80;99.90
22114;DHT22;11223;49.968;9.062;2023-03-12T17:01:32;8.80;99.90
22114;DHT22;11223;49.968;9.062;2023-03-12T17:03:59;8.80;99.90
22114;DHT22;11223;49.968;9.062;2023-03-12T17:06:25;8.70;99.90
22114;DHT22;11223;49.968;9.062;2023-03-12T17:08:52;8.70;99.90
22114;DHT22;11223;49.968;9.062;2023-03-12T17:11:24;8.70;99.90
22114;DHT22;11223;49.968;9.062;2023-03-12T17:13:54;8.70;99.90
22114;DHT22;11223;49.968;9.062;2023-03-12T17:16:22;8.60;99.90
22114;DHT22;11223;49.968;9.062;2023-03-12T17:18:48;8.50;99.90
22114;DHT22;11223;49.968;9.062;2023-03-12T17:21:15;8.50;99.90
22114;DHT22;11223;49.968;9.062;2023-03-12T17:23:41;8.50;99.90
22114;DHT22;11223;49.968;9.062;2023-03-12T17:26:08;8.50;99.90
22114;DHT22;11223;49.968;9.062;2023-03-12T17:28:34;8.50;99.90
22114;DHT22;11223;49.968;9.062;2023-03-12T17:31:00;8.40;99.90
22114;DHT22;11223;49.968;9.062;2023-03-12T17:33:26;8.40;99.90
22114;DHT22;11223;49.968;9.062;2023-03-12T17:36:02;8.50;99.90
22114;DHT22;11223;49.968;9.062;2023-03-12T17:38:29;8.40;99.90
22114;DHT22;11223;49.968;9.062;2023-03-12T17:40:55;8.40;99.90
22114;DHT22;11223;49.968;9.062;2023-03-12T17:43:22;8.30;99.90